Time;durP1;ratioP1;P1;durP2;ratioP2;P2;SDS_P1;SDS_P2;PMS_P1;PMS_P2;Temp;Humidity;BMP_temperature;BMP_pressure;BME280_temperature;BME280_humidity;BME280_pressure;Samples;Min_cycle;Max_cycle;Signal;HPM_P1;HPM_P2
2023/06/12 00:00:52;;;;;;;9.77;8.02;;;;;;;20.33;100.00;101387.88;5204878;28;20017;-70
2023/06/12 00:03:25;;;;;;;13.43;7.57;;;;;;;20.50;100.00;101395.56;5204589;28;20080;-71
2023/06/12 00:05:59;;;;;;;12.55;7.60;;;;;;;20.59;100.00;101392.38;5204343;28;20026;-71
2023/06/12 00:08:33;;;;;;;10.52;7.75;;;;;;;20.66;100.00;101384.13;5204185;28;20112;-71
2023/06/12 00:13:51;;;;;;;13.70;8.48;;;;;;;;;;5204858;28;20365;-71
2023/06/12 00:16:22;;;;;;;12.85;7.93;;;;;;;20.60;100.00;101390.47;5203912;28;20455;-70
2023/06/12 00:18:53;;;;;;;12.15;8.45;;;;;;;20.53;100.00;101393.22;5204161;28;20025;-70
2023/06/12 00:21:23;;;;;;;12.55;7.93;;;;;;;20.50;100.00;101387.41;5204088;28;20588;-71
2023/06/12 00:23:54;;;;;;;11.07;7.80;;;;;;;20.42;100.00;101385.72;5204286;28;20025;-70
2023/06/12 00:26:25;;;;;;;15.13;8.05;;;;;;;20.34;100.00;101395.00;5203795;28;20021;-71
2023/06/12 00:28:56;;;;;;;12.15;7.90;;;;;;;20.26;100.00;101387.06;5216066;28;20067;-71
2023/06/12 00:31:26;;;;;;;11.80;8.32;;;;;;;20.20;100.00;101384.38;5205631;28;20021;-70
2023/06/12 00:33:57;;;;;;;12.57;8.13;;;;;;;20.14;100.00;101386.09;5204462;28;20641;-71
2023/06/12 00:36:28;;;;;;;10.85;8.63;;;;;;;20.05;100.00;101387.38;5202369;28;20071;-71
2023/06/12 00:38:58;;;;;;;12.48;8.40;;;;;;;19.96;100.00;101385.94;5203865;28;20021;-70
2023/06/12 00:41:29;;;;;;;13.48;8.43;;;;;;;19.88;100.00;101387.00;5204235;28;20036;-70
2023/06/12 00:44:00;;;;;;;11.20;8.27;;;;;;;19.78;100.00;101395.66;5203753;28;20475;-70
2023/06/12 00:46:31;;;;;;;11.57;8.20;;;;;;;19.71;100.00;101392.09;5203534;28;20379;-70
2023/06/12 00:49:01;;;;;;;15.38;8.07;;;;;;;19.63;100.00;101386.88;5203891;28;20025;-70
2023/06/12 00:51:33;;;;;;;11.95;9.07;;;;;;;19.53;100.00;101394.59;5203861;28;20352;-70
2023/06/12 00:54:04;;;;;;;22.30;9.30;;;;;;;19.44;100.00;101393.16;5203929;28;20040;-70
2023/06/12 00:56:35;;;;;;;13.40;8.50;;;;;;;19.35;100.00;101393.38;5202223;28;20041;-71
2023/06/12 00:59:06;;;;;;;14.00;9.18;;;;;;;19.28;100.00;101387.13;5203865;28;20021;-70
2023/06/12 01:01:36;;;;;;;14.50;9.35;;;;;;;19.20;100.00;101387.31;5204489;28;20426;-70
2023/06/12 01:04:09;;;;;;;12.57;8.65;;;;;;;19.14;100.00;101388.16;5204233;28;20029;-70
2023/06/12 01:06:47;;;;;;;12.05;8.60;;;;;;;19.15;100.00;101392.56;5202209;28;20047;-70
2023/06/12 01:09:32;;;;;;;14.93;9.43;;;;;;;19.08;100.00;101389.00;5203929;28;20029;-70
2023/06/12 01:12:04;;;;;;;11.77;8.70;;;;;;;19.01;100.00;101388.16;5203733;28;20026;-70
2023/06/12 01:14:35;;;;;;;14.73;9.65;;;;;;;18.96;100.00;101390.66;5203913;28;20099;-70
2023/06/12 01:17:05;;;;;;;14.68;9.23;;;;;;;18.89;100.00;101388.78;5202870;28;20021;-70
2023/06/12 01:19:36;;;;;;;18.15;8.88;;;;;;;18.83;100.00;101386.06;5203638;28;20386;-70
2023/06/12 01:22:12;;;;;;;17.48;9.52;;;;;;;18.76;100.00;101383.31;5203468;28;20021;-70
2023/06/12 01:24:58;;;;;;;20.63;10.32;;;;;;;18.70;100.00;101386.03;5203567;28;20467;-70
2023/06/12 01:27:44;;;;;;;14.02;9.80;;;;;;;18.61;100.00;101388.91;5202945;28;20024;-70
2023/06/12 01:30:43;;;;;;;18.83;10.43;;;;;;;18.53;100.00;101397.28;5203728;28;20471;-70
2023/06/12 01:33:18;;;;;;;15.70;10.68;;;;;;;18.48;100.00;101388.91;5203842;28;20044;-70
2023/06/12 01:35:51;;;;;;;13.63;9.55;;;;;;;18.42;100.00;101389.69;5203912;28;20028;-70
2023/06/12 01:38:23;;;;;;;15.68;9.40;;;;;;;18.34;100.00;101389.91;5215414;28;20399;-70
2023/06/12 01:40:54;;;;;;;15.27;9.88;;;;;;;18.30;100.00;101391.34;5203450;28;20382;-70
2023/06/12 01:43:26;;;;;;;18.48;10.88;;;;;;;18.25;100.00;101391.94;5203629;28;20390;-70
2023/06/12 01:45:56;;;;;;;14.80;10.85;;;;;;;18.19;100.00;101387.34;5202758;28;20021;-70
2023/06/12 01:48:27;;;;;;;14.10;10.43;;;;;;;18.13;100.00;101390.88;5203078;28;20025;-70
2023/06/12 01:50:57;;;;;;;17.05;11.20;;;;;;;18.09;100.00;101385.00;5203165;28;20526;-71
2023/06/12 01:53:28;;;;;;;15.07;10.77;;;;;;;18.04;100.00;101387.50;5203598;28;20502;-71
2023/06/12 01:56:01;;;;;;;17.90;11.95;;;;;;;17.99;100.00;101387.25;5202778;28;20026;-71
2023/06/12 01:58:33;;;;;;;18.17;11.68;;;;;;;17.96;100.00;101393.06;5203057;28;20028;-70
2023/06/12 02:01:04;;;;;;;17.48;11.30;;;;;;;17.93;100.00;101382.66;5203028;28;20022;-70
2023/06/12 02:03:41;;;;;;;25.00;11.95;;;;;;;17.91;100.00;101386.59;5203312;28;20022;-71
2023/06/12 02:06:16;;;;;;;17.08;10.52;;;;;;;17.92;100.00;101386.38;5202618;28;20037;-70
2023/06/12 02:08:46;;;;;;;14.80;10.13;;;;;;;17.95;100.00;101385.16;5203253;28;20075;-70
2023/06/12 02:11:17;;;;;;;13.75;10.40;;;;;;;17.96;100.00;101384.09;5202917;28;20414;-70
2023/06/12 02:13:49;;;;;;;17.13;10.85;;;;;;;18.02;100.00;101380.56;5202965;28;20360;-70
2023/06/12 02:16:21;;;;;;;15.20;11.30;;;;;;;18.06;100.00;101381.84;5202219;28;20032;-70
2023/06/12 02:18:51;;;;;;;16.77;10.98;;;;;;;18.09;100.00;101384.16;5203100;28;20129;-70
2023/06/12 02:21:23;;;;;;;18.60;10.65;;;;;;;18.11;100.00;101380.19;5202653;28;20100;-70
2023/06/12 02:23:54;;;;;;;15.82;10.18;;;;;;;18.13;100.00;101385.44;5202566;28;20478;-70
2023/06/12 02:26:24;;;;;;;17.95;10.23;;;;;;;18.13;100.00;101382.72;5202089;28;20029;-71
2023/06/12 02:29:09;;;;;;;18.10;12.05;;;;;;;18.10;100.00;101380.41;5202909;28;20032;-70
2023/06/12 02:31:40;;;;;;;13.20;9.93;;;;;;;18.01;100.00;101382.44;5201689;28;20029;-71
2023/06/12 02:34:10;;;;;;;16.27;11.68;;;;;;;17.96;100.00;101384.09;5202872;28;20491;-70
2023/06/12 02:36:42;;;;;;;15.48;10.55;;;;;;;17.86;100.00;101384.47;5201948;28;20037;-71
2023/06/12 02:39:14;;;;;;;16.73;10.68;;;;;;;17.72;100.00;101390.81;5202739;28;20538;-70
2023/06/12 02:41:47;;;;;;;21.83;11.57;;;;;;;17.59;100.00;101383.47;5203160;28;20360;-71
2023/06/12 02:44:18;;;;;;;14.05;10.00;;;;;;;17.50;100.00;101385.50;5202727;28;20510;-71
2023/06/12 02:47:05;;;;;;;17.23;11.27;;;;;;;17.45;100.00;101390.66;5201634;28;20029;-70
2023/06/12 02:49:37;;;;;;;18.23;11.45;;;;;;;17.42;100.00;101387.50;5202770;28;20025;-70
2023/06/12 02:52:08;;;;;;;16.27;10.80;;;;;;;17.38;100.00;101387.09;5202328;28;20570;-70
2023/06/12 02:54:39;;;;;;;16.77;11.20;;;;;;;17.34;100.00;101385.81;5202720;28;20022;-70
2023/06/12 02:57:10;;;;;;;14.70;11.05;;;;;;;17.28;100.00;101384.72;5188072;28;20034;-70
2023/06/12 02:59:40;;;;;;;23.60;12.40;;;;;;;17.20;100.00;101393.00;5198073;28;20028;-70
2023/06/12 03:02:11;;;;;;;15.60;11.43;;;;;;;17.12;100.00;101392.28;5200782;28;20018;-70
2023/06/12 03:04:41;;;;;;;19.55;12.45;;;;;;;17.01;100.00;101390.94;5200857;28;20053;-70
2023/06/12 03:07:13;;;;;;;16.27;11.18;;;;;;;16.94;100.00;101403.63;5200169;28;20040;-70
2023/06/12 03:09:44;;;;;;;14.50;10.82;;;;;;;16.84;100.00;101403.94;5202140;28;20558;-70
2023/06/12 03:12:15;;;;;;;18.35;12.18;;;;;;;16.71;100.00;101399.22;5200852;28;20029;-70
2023/06/12 03:14:46;;;;;;;17.02;12.25;;;;;;;16.58;100.00;101412.63;5202233;28;20536;-70
2023/06/12 03:17:17;;;;;;;15.35;11.18;;;;;;;16.51;100.00;101406.25;5201484;28;20029;-70
2023/06/12 03:19:48;;;;;;;15.60;11.23;;;;;;;16.46;100.00;101406.00;5204871;28;20029;-70
2023/06/12 03:22:18;;;;;;;18.05;11.45;;;;;;;16.42;100.00;101405.56;5213593;28;20517;-70
2023/06/12 03:24:53;;;;;;;18.98;12.48;;;;;;;16.39;100.00;101415.94;5205744;28;20040;-70
2023/06/12 03:27:23;;;;;;;17.70;12.38;;;;;;;16.39;100.00;101410.50;5205050;28;20556;-70
2023/06/12 03:29:54;;;;;;;17.42;11.93;;;;;;;16.36;100.00;101403.59;5205903;28;20032;-70
2023/06/12 03:32:26;;;;;;;19.83;13.02;;;;;;;16.33;100.00;101414.00;5205781;28;20014;-70
2023/06/12 03:34:56;;;;;;;16.67;12.75;;;;;;;16.30;100.00;101415.19;5205256;28;20045;-70
2023/06/12 03:37:28;;;;;;;22.73;12.82;;;;;;;16.29;100.00;101410.81;5204899;28;20390;-70
2023/06/12 03:39:58;;;;;;;22.80;13.30;;;;;;;16.29;100.00;101425.19;5205567;28;20029;-70
2023/06/12 03:42:29;;;;;;;22.77;13.23;;;;;;;16.28;100.00;101423.50;5205853;28;20032;-70
2023/06/12 03:44:59;;;;;;;25.13;13.38;;;;;;;16.28;100.00;101426.22;5205698;28;20033;-70
2023/06/12 03:47:30;;;;;;;19.25;13.23;;;;;;;16.25;100.00;101428.47;5204582;28;20029;-71
2023/06/12 03:50:01;;;;;;;21.88;13.68;;;;;;;16.25;100.00;101432.00;5205377;28;20024;-70
2023/06/12 03:52:31;;;;;;;22.15;13.23;;;;;;;16.23;100.00;101428.66;5205400;28;20052;-71
2023/06/12 03:55:02;;;;;;;20.83;14.40;;;;;;;16.24;100.00;101433.03;5205404;28;20027;-70
2023/06/12 03:57:32;;;;;;;22.52;12.23;;;;;;;16.21;100.00;101438.81;5204370;28;20095;-70
2023/06/12 04:00:05;;;;;;;22.05;14.50;;;;;;;16.18;100.00;101441.94;5204958;28;20026;-71
2023/06/12 04:02:36;;;;;;;19.85;12.85;;;;;;;16.18;100.00;101436.50;5205156;28;20028;-70
2023/06/12 04:05:08;;;;;;;20.63;13.82;;;;;;;16.17;100.00;101440.25;5205050;28;20044;-70
2023/06/12 04:07:39;;;;;;;25.40;14.00;;;;;;;16.17;100.00;101442.97;5204510;28;20636;-70
2023/06/12 04:10:09;;;;;;;30.15;14.60;;;;;;;16.19;100.00;101435.47;5204588;28;20048;-70
2023/06/12 04:12:40;;;;;;;20.15;13.45;;;;;;;16.22;100.00;101445.09;5205098;28;20101;-70
2023/06/12 04:15:10;;;;;;;24.45;14.30;;;;;;;16.26;100.00;101440.97;5205039;28;20052;-70
2023/06/12 04:17:41;;;;;;;19.50;12.93;;;;;;;16.33;100.00;101443.78;5204408;28;20097;-70
2023/06/12 04:20:13;;;;;;;19.08;13.70;;;;;;;16.39;100.00;101445.72;5204629;28;20526;-70
2023/06/12 04:22:47;;;;;;;28.48;13.98;;;;;;;16.46;100.00;101449.34;5204396;28;20084;-70
2023/06/12 04:25:18;;;;;;;25.88;15.52;;;;;;;16.51;100.00;101445.00;5204673;28;20025;-70
2023/06/12 04:27:49;;;;;;;26.08;14.73;;;;;;;16.58;100.00;101447.81;5204090;28;20082;-70
2023/06/12 04:30:21;;;;;;;30.42;14.00;;;;;;;16.62;100.00;101450.97;5204844;28;20017;-70
2023/06/12 04:32:53;;;;;;;25.42;13.40;;;;;;;16.68;100.00;101450.22;5204606;28;20020;-70
2023/06/12 04:35:23;;;;;;;18.73;12.85;;;;;;;16.79;100.00;101452.44;5204056;28;20103;-70
2023/06/12 04:37:55;;;;;;;29.40;14.32;;;;;;;16.90;100.00;101443.81;5204010;28;20477;-71
2023/06/12 04:40:26;;;;;;;31.60;13.18;;;;;;;16.98;100.00;101442.84;5204503;28;20029;-71
2023/06/12 04:42:57;;;;;;;21.63;13.07;;;;;;;17.07;100.00;101442.53;5204384;28;20028;-71
2023/06/12 04:45:32;;;;;;;21.25;12.23;;;;;;;17.21;100.00;101440.75;5203919;28;20033;-71
2023/06/12 04:48:02;;;;;;;31.07;13.03;;;;;;;17.33;100.00;101446.50;5203698;28;20363;-71
2023/06/12 04:50:33;;;;;;;20.02;12.85;;;;;;;17.46;100.00;101438.44;5204238;28;20272;-71
2023/06/12 04:53:03;;;;;;;23.05;12.60;;;;;;;17.58;100.00;101438.78;5203116;28;20096;-71
2023/06/12 04:55:34;;;;;;;17.50;11.50;;;;;;;17.69;100.00;101443.63;5203901;28;20068;-70
2023/06/12 04:58:04;;;;;;;17.73;11.68;;;;;;;17.78;100.00;101453.34;5203471;28;20104;-72
2023/06/12 05:00:35;;;;;;;22.20;11.90;;;;;;;17.85;100.00;101450.66;5203711;28;20095;-71
2023/06/12 05:03:06;;;;;;;18.92;11.43;;;;;;;17.96;100.00;101450.09;5197056;28;20057;-71
2023/06/12 05:05:36;;;;;;;26.73;12.32;;;;;;;18.06;100.00;101449.72;5212453;28;20080;-71
2023/06/12 05:08:07;;;;;;;17.70;10.40;;;;;;;18.19;100.00;101454.41;5203191;28;20021;-71
2023/06/12 05:10:37;;;;;;;24.08;11.30;;;;;;;18.28;100.00;101451.31;5203256;28;20037;-71
2023/06/12 05:13:08;;;;;;;18.35;10.88;;;;;;;18.38;100.00;101459.91;5203814;28;20032;-71
2023/06/12 05:15:39;;;;;;;16.05;10.85;;;;;;;18.49;100.00;101454.94;5203502;28;20386;-71
2023/06/12 05:18:09;;;;;;;17.92;10.27;;;;;;;18.56;100.00;101456.63;5203334;28;20052;-71
2023/06/12 05:20:40;;;;;;;19.10;10.38;;;;;;;18.67;100.00;101457.06;5208379;28;20013;-71
2023/06/12 05:23:10;;;;;;;16.02;9.93;;;;;;;18.77;100.00;101462.97;5207121;28;20079;-71
2023/06/12 05:25:41;;;;;;;19.75;10.82;;;;;;;18.87;100.00;101458.81;5203236;28;20029;-71
2023/06/12 05:28:11;;;;;;;17.48;10.70;;;;;;;18.97;100.00;101458.41;5203178;28;20483;-71
2023/06/12 05:30:44;;;;;;;21.23;10.73;;;;;;;19.09;100.00;101458.66;5203620;28;20426;-71
2023/06/12 05:33:15;;;;;;;19.15;10.57;;;;;;;19.21;100.00;101458.88;5203477;28;20479;-71
2023/06/12 05:35:45;;;;;;;14.48;9.65;;;;;;;19.32;100.00;101455.53;5202402;28;20025;-71
2023/06/12 05:38:15;;;;;;;17.80;10.30;;;;;;;19.46;100.00;101454.47;5203346;28;20502;-71
2023/06/12 05:40:46;;;;;;;14.90;9.10;;;;;;;19.58;100.00;101460.97;5203000;28;20135;-71
2023/06/12 05:43:17;;;;;;;13.88;9.63;;;;;;;19.69;100.00;101454.06;5203218;28;20052;-70
2023/06/12 05:45:47;;;;;;;16.13;9.35;;;;;;;19.82;100.00;101442.31;5202711;28;20021;-71
2023/06/12 05:48:18;;;;;;;14.93;8.93;;;;;;;19.97;100.00;101448.34;5202760;28;20052;-71
2023/06/12 05:50:49;;;;;;;16.63;8.57;;;;;;;20.13;100.00;101449.75;5203163;28;20017;-71
2023/06/12 05:53:20;;;;;;;18.88;9.23;;;;;;;20.29;100.00;101446.59;5203182;28;20032;-70
2023/06/12 05:55:50;;;;;;;15.95;8.60;;;;;;;20.51;100.00;101443.56;5202650;28;20438;-71
2023/06/12 05:58:21;;;;;;;14.15;8.48;;;;;;;20.83;100.00;101447.97;5202971;28;20116;-71
2023/06/12 06:00:53;;;;;;;12.63;8.30;;;;;;;21.42;100.00;101457.66;5202685;28;20036;-71
2023/06/12 06:03:24;;;;;;;16.27;8.80;;;;;;;22.23;100.00;101456.63;5203468;28;20033;-71
2023/06/12 06:05:55;;;;;;;13.20;8.05;;;;;;;23.07;100.00;101464.16;5215030;28;20036;-71
2023/06/12 06:08:25;;;;;;;15.20;7.90;;;;;;;23.88;100.00;101460.66;5202965;28;20025;-71
2023/06/12 06:10:56;;;;;;;12.25;7.72;;;;;;;24.64;100.00;101455.13;5202682;28;20103;-71
2023/06/12 06:13:26;;;;;;;11.27;7.07;;;;;;;25.17;100.00;101467.66;5202582;28;20479;-71
2023/06/12 06:15:57;;;;;;;12.52;8.55;;;;;;;25.56;100.00;101466.66;5202326;28;20116;-71
2023/06/12 06:18:28;;;;;;;14.02;7.22;;;;;;;25.95;100.00;101463.94;5202760;28;20036;-71
2023/06/12 06:20:59;;;;;;;13.90;6.75;;;;;;;26.30;100.00;101463.59;5199089;28;20080;-72
2023/06/12 06:23:30;;;;;;;15.98;7.68;;;;;;;26.62;100.00;101471.16;5200284;28;20033;-71
2023/06/12 06:26:02;;;;;;;11.02;7.22;;;;;;;26.83;100.00;101470.28;5202206;28;20025;-72
2023/06/12 06:28:33;;;;;;;14.98;7.82;;;;;;;27.15;100.00;101474.19;5202681;28;20032;-72
2023/06/12 06:31:07;;;;;;;12.35;7.30;;;;;;;27.45;100.00;101477.19;5202613;28;20025;-72
2023/06/12 06:33:37;;;;;;;12.45;6.90;;;;;;;27.77;100.00;101476.34;5202853;28;20026;-72
2023/06/12 06:36:08;;;;;;;10.55;6.90;;;;;;;27.95;100.00;101470.38;5201888;28;20364;-72
2023/06/12 06:38:38;;;;;;;8.85;6.25;;;;;;;28.03;89.48;101472.63;5202795;28;20029;-72
2023/06/12 06:41:09;;;;;;;17.25;6.72;;;;;;;28.24;89.10;101475.50;5202597;28;20032;-72
2023/06/12 06:43:39;;;;;;;11.57;6.72;;;;;;;28.36;91.00;101468.66;5202754;28;20035;-72
2023/06/12 06:46:10;;;;;;;14.77;6.10;;;;;;;28.67;90.64;101478.97;5201866;28;20025;-72
2023/06/12 06:48:40;;;;;;;16.25;7.15;;;;;;;28.80;87.30;101472.94;5202087;28;20025;-72
2023/06/12 06:51:11;;;;;;;9.43;6.63;;;;;;;29.08;91.43;101471.63;5202650;28;20490;-72
2023/06/12 06:53:41;;;;;;;10.93;6.97;;;;;;;29.33;79.86;101468.88;5203689;28;20033;-72
2023/06/12 06:56:12;;;;;;;10.20;6.70;;;;;;;29.38;81.40;101473.56;5206032;28;20411;-72
2023/06/12 06:58:43;;;;;;;10.77;6.85;;;;;;;29.30;74.22;101471.34;5206356;28;20091;-72
2023/06/12 07:01:13;;;;;;;16.35;6.53;;;;;;;29.36;76.64;101478.53;5205939;28;20029;-72
2023/06/12 07:03:43;;;;;;;11.40;6.95;;;;;;;29.47;69.30;101473.81;5206317;28;20029;-72
2023/06/12 07:06:14;;;;;;;14.15;6.72;;;;;;;29.61;68.95;101475.78;5205906;28;20100;-72
2023/06/12 07:08:45;;;;;;;12.27;6.10;;;;;;;29.75;68.29;101466.91;5206154;28;20033;-72
2023/06/12 07:11:16;;;;;;;10.68;6.00;;;;;;;29.90;70.94;101467.72;5206258;28;20029;-72
2023/06/12 07:13:47;;;;;;;8.25;5.90;;;;;;;30.21;68.13;101464.84;5192649;28;20132;-72
2023/06/12 07:16:17;;;;;;;13.40;6.43;;;;;;;30.42;63.51;101468.34;5205453;28;20128;-72
2023/06/12 07:18:48;;;;;;;8.25;5.93;;;;;;;30.60;68.38;101456.63;5206258;28;20021;-72
2023/06/12 07:21:18;;;;;;;16.02;6.32;;;;;;;30.75;70.18;101460.47;5205754;28;20029;-72
2023/06/12 07:23:51;;;;;;;11.38;6.10;;;;;;;31.00;57.68;101465.00;5205665;28;20061;-72
2023/06/12 07:26:23;;;;;;;9.10;6.22;;;;;;;30.90;57.11;101466.72;5205356;28;20029;-72
2023/06/12 07:28:53;;;;;;;13.23;6.10;;;;;;;30.98;70.80;101470.84;5205948;28;20069;-72
2023/06/12 07:31:24;;;;;;;12.77;6.20;;;;;;;31.27;59.68;101475.63;5205899;28;20548;-72
2023/06/12 07:33:55;;;;;;;14.98;6.15;;;;;;;31.51;57.07;101470.97;5205940;28;20100;-72
2023/06/12 07:36:25;;;;;;;12.55;5.97;;;;;;;31.71;62.23;101456.06;5203636;28;20024;-72
2023/06/12 07:38:56;;;;;;;7.97;5.55;;;;;;;31.89;59.38;101466.44;5205750;28;20040;-73
2023/06/12 07:41:26;;;;;;;10.35;5.63;;;;;;;31.92;52.38;101473.34;5205693;28;20017;-72
2023/06/12 07:43:57;;;;;;;13.07;6.07;;;;;;;32.12;57.41;101467.53;5205623;28;20033;-73
2023/06/12 07:46:27;;;;;;;8.10;5.65;;;;;;;32.36;53.66;101463.97;5204984;28;20029;-73
2023/06/12 07:48:58;;;;;;;8.40;5.72;;;;;;;32.30;47.64;101468.72;5205150;28;20107;-72
2023/06/12 07:51:28;;;;;;;10.15;6.20;;;;;;;32.24;48.53;101469.91;5205593;28;20018;-73
2023/06/12 07:53:59;;;;;;;8.80;6.13;;;;;;;32.41;50.95;101458.34;5205425;28;20021;-72
2023/06/12 07:56:32;;;;;;;10.88;6.32;;;;;;;32.25;48.60;101465.19;5204974;28;20055;-72
2023/06/12 07:59:18;;;;;;;7.97;5.55;;;;;;;32.28;52.76;101457.06;5205305;28;20561;-72
2023/06/12 08:01:49;;;;;;;10.40;5.47;;;;;;;32.36;55.00;101455.63;5205093;28;20025;-73
2023/06/12 08:04:19;;;;;;;8.27;5.68;;;;;;;32.54;53.35;101456.78;5205028;28;20086;-73
2023/06/12 08:06:50;;;;;;;14.95;6.07;;;;;;;32.74;53.91;101448.97;5204560;28;20151;-73
2023/06/12 08:09:21;;;;;;;12.75;6.20;;;;;;;32.90;54.13;101448.75;5205243;28;20036;-73
2023/06/12 08:11:51;;;;;;;15.13;5.97;;;;;;;32.92;51.85;101449.28;5204970;28;20572;-73
2023/06/12 08:14:22;;;;;;;8.85;5.85;;;;;;;33.09;54.80;101445.97;5204941;28;20040;-73
2023/06/12 08:16:52;;;;;;;12.15;5.50;;;;;;;33.26;50.85;101443.44;5204300;28;20159;-73
2023/06/12 08:19:23;;;;;;;12.80;6.20;;;;;;;33.34;46.21;101453.03;5203823;28;20421;-73
2023/06/12 08:21:54;;;;;;;14.90;6.07;;;;;;;33.27;47.26;101445.06;5204567;28;20037;-73
2023/06/12 08:24:29;;;;;;;12.73;6.18;;;;;;;33.42;51.11;101453.19;5204527;28;20025;-73
2023/06/12 08:27:00;;;;;;;8.20;5.53;;;;;;;33.66;49.54;101446.63;5204318;28;20040;-73
2023/06/12 08:29:30;;;;;;;10.68;6.30;;;;;;;33.76;48.85;101446.44;5204450;28;20029;-73
2023/06/12 08:32:01;;;;;;;7.18;5.40;;;;;;;34.00;42.31;101444.31;5204892;28;20025;-73
2023/06/12 08:34:32;;;;;;;7.97;5.90;;;;;;;34.00;45.84;101449.06;5204594;28;20112;-73
2023/06/12 08:37:02;;;;;;;9.65;5.65;;;;;;;33.91;41.47;101448.09;5214964;28;20028;-73
2023/06/12 08:39:33;;;;;;;7.32;5.57;;;;;;;33.98;42.02;101441.00;5205997;28;20048;-73
2023/06/12 08:42:08;;;;;;;9.98;5.80;;;;;;;34.22;42.94;101443.56;5204205;28;20467;-73
2023/06/12 08:44:42;;;;;;;8.23;5.95;;;;;;;34.25;42.36;101442.94;5203994;28;20040;-73
2023/06/12 08:47:14;;;;;;;12.02;6.03;;;;;;;34.32;42.25;101433.34;5203216;28;20063;-73
2023/06/12 08:49:45;;;;;;;11.23;5.47;;;;;;;34.26;43.51;101435.41;5204023;28;20383;-73
2023/06/12 08:52:17;;;;;;;11.18;5.90;;;;;;;34.43;41.16;101426.38;5203937;28;21680;-73
2023/06/12 08:54:50;;;;;;;8.48;5.60;;;;;;;34.28;40.03;101435.91;5203966;28;20033;-73
2023/06/12 08:57:21;;;;;;;8.05;5.90;;;;;;;34.21;37.86;101433.56;5203302;28;20420;-73
2023/06/12 08:59:51;;;;;;;10.00;5.70;;;;;;;34.30;37.37;101441.19;5203676;28;20057;-73
2023/06/12 09:02:23;;;;;;;7.90;5.57;;;;;;;34.23;36.48;101433.25;5203498;28;20247;-73
2023/06/12 09:05:09;;;;;;;7.28;5.88;;;;;;;34.36;39.15;101437.97;5203894;28;20136;-73
2023/06/12 09:07:44;;;;;;;9.35;5.30;;;;;;;34.50;37.82;101435.19;5203113;28;20056;-73
2023/06/12 09:10:14;;;;;;;11.25;5.50;;;;;;;34.35;36.08;101425.19;5203138;28;20029;-73
2023/06/12 09:12:45;;;;;;;6.90;5.32;;;;;;;34.26;34.59;101427.88;5203559;28;20032;-73
2023/06/12 09:15:17;;;;;;;8.20;5.30;;;;;;;34.32;37.05;101430.53;5203264;28;20422;-73
2023/06/12 09:17:49;;;;;;;7.72;5.78;;;;;;;34.34;36.19;101426.34;5214087;28;20052;-73
2023/06/12 09:20:36;;;;;;;13.88;5.63;;;;;;;34.56;35.53;101428.34;5204304;28;20057;-73
2023/06/12 09:23:07;;;;;;;9.63;5.10;;;;;;;34.46;33.69;101429.41;5203219;28;20100;-73
2023/06/12 09:25:40;;;;;;;7.97;5.35;;;;;;;34.55;35.38;101425.91;5203152;28;20194;-73
2023/06/12 09:28:11;;;;;;;6.70;5.25;;;;;;;34.31;36.19;101428.91;5207991;28;20102;-73
2023/06/12 09:30:42;;;;;;;8.20;5.57;;;;;;;34.22;36.93;101424.06;5211616;28;20088;-73
2023/06/12 09:33:13;;;;;;;8.10;5.60;;;;;;;34.27;39.38;101423.94;5202887;28;20131;-73
2023/06/12 09:36:02;;;;;;;6.80;5.20;;;;;;;34.65;36.84;101425.66;5203773;28;20037;-73
2023/06/12 09:38:35;;;;;;;10.63;5.43;;;;;;;34.80;34.51;101421.69;5213445;28;20029;-73
2023/06/12 09:41:08;;;;;;;14.82;5.18;;;;;;;34.69;33.97;101416.34;5203863;28;20043;-73
2023/06/12 09:43:38;;;;;;;8.23;5.28;;;;;;;34.50;32.26;101416.50;5201475;28;20791;-73
2023/06/12 09:46:09;;;;;;;8.52;5.45;;;;;;;34.43;33.39;101416.06;5202595;28;20037;-73
2023/06/12 09:48:41;;;;;;;9.38;5.38;;;;;;;34.24;35.75;101412.59;5204465;28;20032;-73
2023/06/12 09:51:12;;;;;;;9.05;5.20;;;;;;;34.15;36.91;101411.72;5203010;28;20108;-73
2023/06/12 09:53:45;;;;;;;13.25;5.10;;;;;;;34.23;35.59;101416.53;5202675;28;20100;-73
2023/06/12 09:56:16;;;;;;;7.25;4.82;;;;;;;34.31;33.88;101414.97;5202160;28;20502;-73
2023/06/12 09:58:49;;;;;;;7.60;5.18;;;;;;;34.36;30.97;101423.22;5202481;28;20040;-73
2023/06/12 10:01:21;;;;;;;7.85;4.95;;;;;;;34.51;32.64;101420.13;5202417;28;20013;-74
2023/06/12 10:03:56;;;;;;;7.43;4.97;;;;;;;34.61;30.83;101428.25;5202593;28;20041;-73
2023/06/12 10:06:27;;;;;;;9.13;4.82;;;;;;;34.61;32.33;101422.66;5201714;28;20021;-73
2023/06/12 10:08:58;;;;;;;13.40;5.28;;;;;;;34.69;32.10;101415.50;5202290;28;20056;-73
2023/06/12 10:11:30;;;;;;;7.75;5.25;;;;;;;34.67;29.82;101420.56;5202428;28;20076;-73
2023/06/12 10:14:00;;;;;;;10.82;5.20;;;;;;;34.41;31.82;101417.53;5190330;28;20491;-73
2023/06/12 10:16:33;;;;;;;13.23;5.55;;;;;;;34.43;34.71;101412.47;5201775;28;20036;-74
2023/06/12 10:19:05;;;;;;;5.93;4.95;;;;;;;34.39;30.82;101412.28;5202180;28;20029;-73
2023/06/12 10:21:36;;;;;;;8.75;5.68;;;;;;;33.92;33.80;101411.59;5193494;28;20053;-73
2023/06/12 10:24:06;;;;;;;13.55;5.20;;;;;;;33.62;32.61;101415.00;5202427;28;20399;-73
2023/06/12 10:26:37;;;;;;;6.53;5.70;;;;;;;33.65;39.65;101414.38;5196556;28;20033;-73
2023/06/12 10:29:27;;;;;;;6.88;4.90;;;;;;;33.70;29.09;101417.88;5204155;28;20028;-74
2023/06/12 10:32:16;;;;;;;8.32;4.70;;;;;;;33.83;29.14;101409.84;5211985;28;20021;-73
2023/06/12 10:34:48;;;;;;;7.10;5.05;;;;;;;33.72;30.55;101410.03;5214913;28;20580;-73
2023/06/12 10:37:21;;;;;;;8.48;5.07;;;;;;;33.63;33.84;101403.53;5214068;28;20033;-73
2023/06/12 10:40:05;;;;;;;10.30;5.75;;;;;;;33.44;30.46;101400.88;5206361;28;20079;-73
2023/06/12 10:43:04;;;;;;;6.80;5.22;;;;;;;33.28;32.79;101391.13;5210946;28;20091;-73
2023/06/12 10:45:36;;;;;;;5.55;4.78;;;;;;;33.31;33.51;101389.69;5206372;28;20033;-73
2023/06/12 10:48:06;;;;;;;8.70;4.97;;;;;;;33.38;31.30;101387.31;5210401;28;20070;-73
2023/06/12 10:50:44;;;;;;;7.78;5.22;;;;;;;33.47;31.72;101380.78;5213247;28;20450;-73
2023/06/12 10:53:23;;;;;;;9.20;5.05;;;;;;;33.55;31.61;101378.44;5212025;28;20013;-74
2023/06/12 10:56:01;;;;;;;9.85;5.00;;;;;;;33.53;30.60;101381.50;5208493;28;20066;-73
2023/06/12 10:58:55;;;;;;;9.15;5.03;;;;;;;33.47;28.81;101379.94;5212136;28;20033;-73
2023/06/12 11:01:26;;;;;;;7.55;5.05;;;;;;;33.40;28.75;101379.50;5206755;28;20103;-73
2023/06/12 11:03:58;;;;;;;10.18;5.60;;;;;;;33.21;30.31;101374.03;5208792;28;20025;-73
2023/06/12 11:06:32;;;;;;;9.35;6.07;;;;;;;33.06;31.17;101380.69;5213310;28;20548;-73
2023/06/12 11:09:22;;;;;;;6.60;5.17;;;;;;;32.91;29.40;101373.44;5207647;28;20036;-73
2023/06/12 11:11:52;;;;;;;10.57;5.00;;;;;;;33.02;30.45;101370.47;5200830;28;20280;-73
2023/06/12 11:14:25;;;;;;;7.97;5.38;;;;;;;33.14;31.24;101366.09;5210981;28;20025;-74
2023/06/12 11:16:58;;;;;;;9.13;5.55;;;;;;;32.93;36.81;101367.56;5207205;28;20108;-73
2023/06/12 11:19:28;;;;;;;7.93;5.00;;;;;;;33.12;34.11;101373.88;5213516;28;20021;-73
2023/06/12 11:22:02;;;;;;;11.25;5.18;;;;;;;32.98;29.43;101368.31;5207285;28;20028;-73
2023/06/12 11:24:33;;;;;;;10.13;5.25;;;;;;;32.87;29.53;101365.97;5209441;28;20021;-73
2023/06/12 11:27:04;;;;;;;11.65;5.32;;;;;;;33.06;30.91;101365.97;5207863;28;20018;-73
2023/06/12 11:29:35;;;;;;;6.57;5.03;;;;;;;33.17;32.11;101359.06;5210597;28;20037;-73
2023/06/12 11:32:06;;;;;;;10.60;5.05;;;;;;;33.02;27.44;101362.13;5210758;28;20022;-73
2023/06/12 11:34:37;;;;;;;9.43;4.93;;;;;;;33.01;28.71;101361.31;5210657;28;20064;-73
2023/06/12 11:37:25;;;;;;;9.25;4.85;;;;;;;33.05;33.47;101359.56;5209811;28;20026;-73